TAF and METAR

METAR for Ushuaia - Malvinas Argentinas International Airport

SAWH 230300Z 14010KT 9999 -DZ SCT030 OVC080 05/M00 Q1001
Report created 23. feb 04:00
wind 10 knots from SE (140°) visibility > 10km light drizzle scattered clouds (~50% cover) at 3000 feet overcast at 8000 feet Temperature 5° with dewpoint at -0° (Humidity 70.06%) Pressure 1001 hPa

TAF for Ushuaia - Malvinas Argentinas International Airport

TAF SAWH 222300Z 2300/2324 VRB07KT 9999 BKN026 BKN040 TX07/2318Z TN04/2310Z BECMG 2308/2310 18025KT BKN015 BKN020 TEMPO 2310/2316 5000 SHRA OVC008
Report created 23. feb 00:00

between 23. feb 01:00 - 23. feb 01:00

wind 7 knots from various directions visibility > 10km broken clouds (~75% cover) at 2600 feet broken clouds (~75% cover) at 4000 feet Max temperature 07° expected today at around 19 o'clock Min temperature 04° expected today at around 11 o'clock

becoming between 23. feb 09:00 - 23. feb 11:00

wind 25 knots from S (180°) broken clouds (~75% cover) at 1500 feet broken clouds (~75% cover) at 2000 feet

temporarily between 23. feb 11:00 - 23. feb 17:00

visibility 5000 meters rain showers overcast at 800 feet
Ushuaia - Malvinas Argentinas International Airport in Argentina at 14m

Latest 5 airports